createdAt,value
2016-05-23T00:00:33.044Z,51.18
2016-05-23T00:01:33.078Z,51.18
2016-05-23T00:02:33.096Z,50.8
2016-05-23T00:03:33.130Z,50.8
2016-05-23T00:04:32.992Z,50.78
2016-05-23T00:05:33.011Z,50.61
2016-05-23T00:06:33.200Z,50.51
2016-05-23T00:07:33.063Z,50.61
2016-05-23T00:08:33.097Z,50.7
2016-05-23T00:09:33.272Z,50.7
2016-05-23T00:10:33.149Z,50.7
2016-05-23T00:11:33.324Z,51.18
2016-05-23T00:12:33.342Z,51.09
2016-05-23T00:13:33.375Z,50.96
2016-05-23T00:14:33.393Z,50.99
2016-05-23T00:15:33.443Z,51.35
2016-05-23T00:16:33.291Z,50.78
2016-05-23T00:17:33.480Z,51.09
2016-05-23T00:18:33.498Z,50.78
2016-05-23T00:19:33.533Z,51.09
2016-05-23T00:20:33.551Z,50.68
2016-05-23T00:21:33.569Z,50.7
2016-05-23T00:22:33.603Z,50.68
2016-05-23T00:23:33.622Z,50.68
2016-05-23T00:24:33.655Z,50.78
2016-05-23T00:25:33.673Z,50.78
2016-05-23T00:26:33.693Z,50.7
2016-05-23T00:27:33.725Z,50.51
2016-05-23T00:28:33.745Z,50.61
2016-05-23T00:29:34.309Z,50.68
2016-05-23T00:30:33.796Z,50.7
2016-05-23T00:31:33.815Z,50.61
2016-05-23T00:32:33.864Z,51.18
2016-05-23T00:33:33.726Z,51.28
2016-05-23T00:34:33.901Z,50.7
2016-05-23T00:35:33.919Z,50.8
2016-05-23T00:36:33.797Z,51.18
2016-05-23T00:37:33.987Z,50.96
2016-05-23T00:38:33.990Z,51.28
2016-05-23T00:39:34.024Z,50.9
2016-05-23T00:40:34.042Z,51.18
2016-05-23T00:41:34.075Z,50.9
2016-05-23T00:42:34.110Z,50.99
2016-05-23T00:43:34.128Z,50.7
2016-05-23T00:44:33.991Z,50.7
2016-05-23T00:45:34.165Z,50.58
2016-05-23T00:46:34.199Z,50.9
2016-05-23T00:47:34.217Z,50.7
2016-05-23T00:48:34.251Z,50.7
2016-05-23T00:49:34.269Z,50.49
2016-05-23T00:50:34.304Z,50.7
2016-05-23T00:51:34.353Z,50.58
2016-05-23T00:52:34.355Z,50.51
2016-05-23T00:53:34.373Z,50.61
2016-05-23T00:54:34.408Z,50.61
2016-05-23T00:55:34.426Z,50.7
2016-05-23T00:56:34.444Z,50.7
2016-05-23T00:57:34.463Z,50.49
2016-05-23T00:58:34.496Z,50.99
2016-05-23T00:59:34.828Z,50.96
2016-05-23T01:00:34.548Z,50.51
2016-05-23T01:01:34.584Z,50.8
2016-05-23T01:02:34.601Z,50.9
2016-05-23T01:03:34.619Z,50.9
2016-05-23T01:04:34.638Z,51.37
2016-05-23T01:05:34.672Z,50.78
2016-05-23T01:06:34.706Z,51.09
2016-05-23T01:07:34.567Z,51.09
2016-05-23T01:08:34.742Z,50.7
2016-05-23T01:09:34.776Z,50.8
2016-05-23T01:10:34.794Z,50.8
2016-05-23T01:11:34.828Z,50.8
2016-05-23T01:12:34.847Z,50.7
2016-05-23T01:13:34.866Z,50.8
2016-05-23T01:14:34.993Z,50.9
2016-05-23T01:15:34.917Z,50.51
2016-05-23T01:16:34.952Z,51.09
2016-05-23T01:17:34.969Z,50.9
2016-05-23T01:18:34.988Z,50.51
2016-05-23T01:19:35.022Z,50.51
2016-05-23T01:20:35.041Z,50.87
2016-05-23T01:21:35.090Z,50.8
2016-05-23T01:22:35.093Z,50.68
2016-05-23T01:23:35.126Z,50.51
2016-05-23T01:24:35.145Z,50.68
2016-05-23T01:25:35.179Z,50.61
2016-05-23T01:26:35.196Z,50.68
2016-05-23T01:27:35.232Z,50.68
2016-05-23T01:28:35.249Z,51.25
2016-05-23T01:29:35.267Z,51.25
2016-05-23T01:30:35.301Z,51.06
2016-05-23T01:31:35.320Z,50.96
2016-05-23T01:32:35.354Z,51.06
2016-05-23T01:33:35.372Z,51.06
2016-05-23T01:34:35.390Z,50.87
2016-05-23T01:35:35.425Z,51.16
2016-05-23T01:36:35.458Z,50.87
2016-05-23T01:37:35.461Z,50.87
2016-05-23T01:38:35.494Z,50.78
2016-05-23T01:39:35.514Z,50.87
2016-05-23T01:40:35.547Z,50.96
2016-05-23T01:41:35.566Z,50.87
2016-05-23T01:42:35.600Z,51.16
2016-05-23T01:43:35.617Z,51.06
2016-05-23T01:44:35.652Z,51.25
2016-05-23T01:45:35.670Z,51.06
2016-05-23T01:46:35.704Z,51.06
2016-05-23T01:47:35.722Z,50.96
2016-05-23T01:48:35.756Z,51.16
2016-05-23T01:49:35.774Z,51.64
2016-05-23T01:50:35.793Z,51.35
2016-05-23T01:51:35.827Z,51.45
2016-05-23T01:52:35.845Z,51.45
2016-05-23T01:53:35.863Z,51.35
2016-05-23T01:54:35.741Z,51.45
2016-05-23T01:55:35.916Z,51.54
2016-05-23T01:56:35.949Z,51.45
2016-05-23T01:57:35.968Z,51.35
2016-05-23T01:58:36.002Z,51.16
2016-05-23T01:59:36.020Z,51.45
2016-05-23T02:00:35.882Z,51.54
2016-05-23T02:01:36.072Z,51.45
2016-05-23T02:02:36.091Z,51.54
2016-05-23T02:03:36.125Z,51.35
2016-05-23T02:04:36.142Z,51.32
2016-05-23T02:05:36.177Z,51.81
2016-05-23T02:06:36.195Z,51.81
2016-05-23T02:07:36.056Z,52
2016-05-23T02:08:36.248Z,51.9
2016-05-23T02:09:36.282Z,52.09
2016-05-23T02:10:36.300Z,51.81
2016-05-23T02:11:36.318Z,51.9
2016-05-23T02:12:36.336Z,51.83
2016-05-23T02:13:36.369Z,51.81
2016-05-23T02:14:36.389Z,52
2016-05-23T02:15:36.422Z,51.81
2016-05-23T02:16:36.456Z,51.71
2016-05-23T02:17:36.474Z,51.71
2016-05-23T02:18:36.493Z,52
2016-05-23T02:19:36.511Z,52.19
2016-05-23T02:20:36.546Z,52.09
2016-05-23T02:21:36.564Z,52.28
2016-05-23T02:22:36.597Z,52.19
2016-05-23T02:23:36.616Z,52.38
2016-05-23T02:24:36.666Z,52.38
2016-05-23T02:25:36.652Z,52.48
2016-05-23T02:26:36.530Z,52.38
2016-05-23T02:27:36.721Z,52.38
2016-05-23T02:28:36.738Z,52.48
2016-05-23T02:29:36.773Z,52.95
2016-05-23T02:30:36.791Z,52.67
2016-05-23T02:31:36.809Z,53.15
2016-05-23T02:32:36.829Z,52.86
2016-05-23T02:33:36.706Z,52.86
2016-05-23T02:34:36.880Z,52.95
2016-05-23T02:35:36.914Z,52.57
2016-05-23T02:36:36.947Z,52.95
2016-05-23T02:37:36.967Z,52.86
2016-05-23T02:38:36.984Z,52.95
2016-05-23T02:39:37.018Z,52.76
2016-05-23T02:40:37.036Z,52.86
2016-05-23T02:41:37.056Z,52.76
2016-05-23T02:42:37.089Z,52.76
2016-05-23T02:43:37.108Z,52.48
2016-05-23T02:44:37.719Z,52.67
2016-05-23T02:45:37.159Z,52.95
2016-05-23T02:46:37.178Z,53.63
2016-05-23T02:47:37.196Z,53.34
2016-05-23T02:48:37.230Z,53.24
2016-05-23T02:49:37.264Z,53.34
2016-05-23T02:50:37.283Z,53.24
2016-05-23T02:51:37.300Z,53.44
2016-05-23T02:52:37.335Z,53.34
2016-05-23T02:53:37.352Z,53.24
2016-05-23T02:54:37.371Z,53.15
2016-05-23T02:55:37.405Z,53.24
2016-05-23T02:56:37.268Z,53.34
2016-05-23T02:57:37.458Z,53.44
2016-05-23T02:58:37.476Z,53.34
2016-05-23T02:59:37.900Z,53.05
2016-05-23T03:00:37.528Z,53.34
2016-05-23T03:01:37.546Z,53.44
2016-05-23T03:02:37.580Z,53.34
2016-05-23T03:03:37.442Z,53.24
2016-05-23T03:04:37.476Z,53.53
2016-05-23T03:05:37.650Z,53.53
2016-05-23T03:06:37.669Z,53.34
2016-05-23T03:07:37.703Z,53.89
2016-05-23T03:08:37.721Z,53.5
2016-05-23T03:09:37.755Z,53.6
2016-05-23T03:10:37.773Z,53.63
2016-05-23T03:11:37.792Z,53.82
2016-05-23T03:12:37.826Z,53.72
2016-05-23T03:13:37.844Z,53.63
2016-05-23T03:14:37.878Z,53.5
2016-05-23T03:15:37.897Z,53.44
2016-05-23T03:16:37.759Z,54.11
2016-05-23T03:17:37.949Z,54.11
2016-05-23T03:18:37.966Z,54.08
2016-05-23T03:19:37.986Z,53.89
2016-05-23T03:20:38.019Z,54.27
2016-05-23T03:21:38.038Z,53.99
2016-05-23T03:22:38.072Z,53.99
2016-05-23T03:23:38.090Z,54.17
2016-05-23T03:24:38.124Z,54.27
2016-05-23T03:25:38.142Z,54.17
2016-05-23T03:26:38.161Z,54.08
2016-05-23T03:27:38.194Z,53.89
2016-05-23T03:28:38.212Z,53.99
2016-05-23T03:29:38.496Z,54.17
2016-05-23T03:30:38.265Z,53.99
2016-05-23T03:31:38.283Z,54.27
2016-05-23T03:32:38.317Z,54.08
2016-05-23T03:33:38.335Z,54.17
2016-05-23T03:34:38.353Z,53.99
2016-05-23T03:35:38.232Z,54.08
2016-05-23T03:36:38.421Z,54.17
2016-05-23T03:37:38.440Z,53.99
2016-05-23T03:38:38.473Z,54.17
2016-05-23T03:39:38.492Z,54.08
2016-05-23T03:40:38.511Z,53.89
2016-05-23T03:41:38.373Z,53.99
2016-05-23T03:42:38.562Z,53.89
2016-05-23T03:43:38.581Z,54.17
2016-05-23T03:44:38.959Z,53.89
2016-05-23T03:45:38.633Z,54.08
2016-05-23T03:46:38.652Z,54.27
2016-05-23T03:47:38.669Z,54.08
2016-05-23T03:48:38.704Z,53.89
2016-05-23T03:49:38.722Z,54.08
2016-05-23T03:50:38.756Z,54.08
2016-05-23T03:51:38.775Z,53.99
2016-05-23T03:52:38.808Z,54.08
2016-05-23T03:53:38.671Z,54.17
2016-05-23T03:54:38.845Z,53.7
2016-05-23T03:55:38.895Z,54.27
2016-05-23T03:56:38.897Z,54.37
2016-05-23T03:57:38.932Z,54.27
2016-05-23T03:58:38.949Z,54.27
2016-05-23T03:59:39.202Z,54.37
2016-05-23T04:00:39.002Z,54.56
2016-05-23T04:01:39.020Z,54.46
2016-05-23T04:02:39.038Z,54.56
2016-05-23T04:03:39.073Z,54.56
2016-05-23T04:04:39.107Z,54.27
2016-05-23T04:05:39.124Z,54.56
2016-05-23T04:06:39.143Z,54.46
2016-05-23T04:07:39.162Z,54.56
2016-05-23T04:08:39.196Z,54.27
2016-05-23T04:09:39.214Z,54.56
2016-05-23T04:10:39.232Z,54.46
2016-05-23T04:11:39.265Z,54.27
2016-05-23T04:12:39.284Z,54.37
2016-05-23T04:13:39.318Z,54.27
2016-05-23T04:14:39.728Z,54.27
2016-05-23T04:15:39.370Z,54.27
2016-05-23T04:16:39.389Z,54.56
2016-05-23T04:17:39.407Z,54.27
2016-05-23T04:18:39.441Z,54.37
2016-05-23T04:19:39.475Z,54.46
2016-05-23T04:20:39.494Z,54.66
2016-05-23T04:21:39.511Z,54.46
2016-05-23T04:22:39.530Z,54.37
2016-05-23T04:23:39.564Z,54.56
2016-05-23T04:24:39.582Z,54.66
2016-05-23T04:25:39.616Z,54.37
2016-05-23T04:26:39.635Z,54.37
2016-05-23T04:27:39.653Z,54.37
2016-05-23T04:28:39.686Z,54.37
2016-05-23T04:29:40.033Z,54.66
2016-05-23T04:30:39.738Z,54.75
2016-05-23T04:31:39.757Z,54.56
2016-05-23T04:32:39.775Z,54.66
2016-05-23T04:33:39.809Z,54.46
2016-05-23T04:34:39.827Z,54.66
2016-05-23T04:35:39.690Z,54.56
2016-05-23T04:36:39.865Z,54.66
2016-05-23T04:37:39.898Z,54.75
2016-05-23T04:38:39.917Z,54.85
2016-05-23T04:39:39.951Z,54.56
2016-05-23T04:40:39.812Z,54.94
2016-05-23T04:41:39.987Z,54.56
2016-05-23T04:42:40.021Z,54.46
2016-05-23T04:43:40.040Z,54.46
2016-05-23T04:44:40.198Z,55.04
2016-05-23T04:45:40.092Z,55.04
2016-05-23T04:46:40.110Z,55.23
2016-05-23T04:47:40.144Z,55.13
2016-05-23T04:48:40.162Z,54.94
2016-05-23T04:49:40.181Z,54.85
2016-05-23T04:50:40.215Z,55.13
2016-05-23T04:51:40.249Z,55.13
2016-05-23T04:52:40.266Z,54.85
2016-05-23T04:53:40.286Z,54.75
2016-05-23T04:54:40.319Z,55.04
2016-05-23T04:55:40.338Z,54.94
2016-05-23T04:56:40.356Z,54.94
2016-05-23T04:57:40.406Z,54.94
2016-05-23T04:58:40.408Z,54.94
2016-05-23T04:59:40.473Z,54.85
2016-05-23T05:00:40.461Z,54.85
2016-05-23T05:01:40.494Z,54.66
2016-05-23T05:02:40.497Z,54.75
2016-05-23T05:03:40.374Z,54.94
2016-05-23T05:04:40.565Z,54.94
2016-05-23T05:05:40.583Z,54.85
2016-05-23T05:06:40.602Z,54.75
2016-05-23T05:07:40.479Z,54.75
2016-05-23T05:08:40.654Z,54.85
2016-05-23T05:09:40.672Z,54.56
2016-05-23T05:10:40.706Z,54.66
2016-05-23T05:11:40.740Z,54.85
2016-05-23T05:12:40.759Z,54.85
2016-05-23T05:13:40.776Z,54.85
2016-05-23T05:14:41.326Z,54.56
2016-05-23T05:15:40.828Z,54.94
2016-05-23T05:16:40.848Z,55.33
2016-05-23T05:17:40.881Z,54.46
2016-05-23T05:18:40.900Z,54.46
2016-05-23T05:19:40.917Z,54.27
2016-05-23T05:20:40.952Z,54.08
2016-05-23T05:21:40.970Z,54.08
2016-05-23T05:22:41.003Z,53.91
2016-05-23T05:23:41.023Z,53.15
2016-05-23T05:24:41.041Z,53.05
2016-05-23T05:25:41.074Z,53.05
2016-05-23T05:26:41.093Z,52.86
2016-05-23T05:27:41.127Z,52.67
2016-05-23T05:28:41.145Z,52.5
2016-05-23T05:29:41.164Z,52.38
2016-05-23T05:30:41.197Z,51.83
2016-05-23T05:31:41.216Z,52.02
2016-05-23T05:32:41.249Z,51.83
2016-05-23T05:33:41.111Z,51.54
2016-05-23T05:34:41.302Z,51.83
2016-05-23T05:35:41.164Z,51.25
2016-05-23T05:36:42.260Z,51.06
2016-05-23T05:37:41.372Z,50.87
2016-05-23T05:38:41.391Z,51.09
2016-05-23T05:39:41.425Z,50.42
2016-05-23T05:40:41.443Z,51.18
2016-05-23T05:41:41.477Z,50.9
2016-05-23T05:42:41.511Z,50.13
2016-05-23T05:43:41.373Z,50.99
2016-05-23T05:44:41.563Z,50.13
2016-05-23T05:45:41.425Z,50.42
2016-05-23T05:46:41.600Z,50.42
2016-05-23T05:47:41.634Z,50.13
2016-05-23T05:48:41.651Z,50.03
2016-05-23T05:49:41.686Z,50.61
2016-05-23T05:50:41.704Z,50.51
2016-05-23T05:51:41.723Z,50.61
2016-05-23T05:52:41.600Z,50.32
2016-05-23T05:53:41.775Z,49.74
2016-05-23T05:54:41.809Z,49.93
2016-05-23T05:55:41.827Z,50.13
2016-05-23T05:56:41.705Z,49.93
2016-05-23T05:57:41.880Z,49.93
2016-05-23T05:58:41.914Z,50.13
2016-05-23T05:59:41.947Z,49.84
2016-05-23T06:00:41.966Z,50.03
2016-05-23T06:01:41.984Z,49.93
2016-05-23T06:02:42.019Z,50.13
2016-05-23T06:03:42.036Z,50.13
2016-05-23T06:04:42.070Z,49.84
2016-05-23T06:05:42.105Z,50.13
2016-05-23T06:06:42.138Z,50.13
2016-05-23T06:07:42.140Z,50.13
2016-05-23T06:08:42.002Z,49.93
2016-05-23T06:09:42.193Z,49.84
2016-05-23T06:10:42.211Z,49.84
2016-05-23T06:11:42.245Z,50.03
2016-05-23T06:12:42.263Z,49.93
2016-05-23T06:13:42.297Z,50.15
2016-05-23T06:14:42.316Z,50.13
2016-05-23T06:15:42.349Z,50.32
2016-05-23T06:16:42.368Z,50.23
2016-05-23T06:17:42.434Z,50.23
2016-05-23T06:18:42.421Z,50.15
2016-05-23T06:19:42.548Z,50.32
2016-05-23T06:20:42.473Z,50.32
2016-05-23T06:21:42.507Z,50.32
2016-05-23T06:22:42.525Z,50.32
2016-05-23T06:23:42.542Z,50.03
2016-05-23T06:24:42.577Z,50.13
2016-05-23T06:25:42.611Z,49.93
2016-05-23T06:26:42.629Z,50.03
2016-05-23T06:27:42.522Z,50.32
2016-05-23T06:28:42.681Z,50.8
2016-05-23T06:29:43.372Z,50.9
2016-05-23T06:30:42.734Z,50.7
2016-05-23T06:31:42.752Z,50.9
2016-05-23T06:32:42.786Z,50.9
2016-05-23T06:33:42.805Z,50.7
2016-05-23T06:34:42.839Z,50.8
2016-05-23T06:35:42.872Z,50.8
2016-05-23T06:36:42.891Z,50.51
2016-05-23T06:37:42.909Z,50.51
2016-05-23T06:38:42.944Z,50.7
2016-05-23T06:39:42.804Z,50.61
2016-05-23T06:40:42.839Z,50.7
2016-05-23T06:41:43.029Z,50.8
2016-05-23T06:42:43.047Z,51.09
2016-05-23T06:43:43.065Z,51.09
2016-05-23T06:44:43.209Z,51.18
2016-05-23T06:45:43.118Z,50.9
2016-05-23T06:46:43.152Z,51.16
2016-05-23T06:47:43.015Z,51.25
2016-05-23T06:48:43.230Z,51.06
2016-05-23T06:49:43.274Z,50.87
2016-05-23T06:50:43.317Z,50.96
2016-05-23T06:51:43.377Z,51.09
2016-05-23T06:52:43.436Z,51.06
2016-05-23T06:53:43.462Z,50.99
2016-05-23T06:54:43.506Z,51.06
2016-05-23T06:55:43.533Z,50.96
2016-05-23T06:56:43.562Z,51.06
2016-05-23T06:57:43.604Z,51.73
2016-05-23T06:58:43.626Z,51.54
2016-05-23T06:59:44.100Z,51.64
2016-05-23T07:00:43.528Z,51.45
2016-05-23T07:01:43.721Z,51.64
2016-05-23T07:02:43.743Z,51.45
2016-05-23T07:03:43.778Z,51.35
2016-05-23T07:04:43.797Z,51.83
2016-05-23T07:05:43.863Z,52.02
2016-05-23T07:06:43.851Z,51.83
2016-05-23T07:07:43.887Z,52.12
2016-05-23T07:08:43.905Z,52.02
2016-05-23T07:09:43.939Z,51.93
2016-05-23T07:10:43.959Z,52.02
2016-05-23T07:11:43.992Z,52.02
2016-05-23T07:12:44.027Z,52.02
2016-05-23T07:13:44.046Z,51.73
2016-05-23T07:14:45.018Z,51.93
2016-05-23T07:15:44.098Z,52.02
2016-05-23T07:16:44.118Z,52.02
2016-05-23T07:17:44.136Z,52.02
2016-05-23T07:18:44.013Z,52.09
2016-05-23T07:19:44.188Z,52.02
2016-05-23T07:20:44.222Z,52.12
2016-05-23T07:21:44.085Z,52.02
2016-05-23T07:22:44.275Z,52.02
2016-05-23T07:23:44.293Z,51.83
2016-05-23T07:24:44.312Z,51.93
2016-05-23T07:25:44.345Z,51.73
2016-05-23T07:26:44.379Z,51.93
2016-05-23T07:27:44.397Z,51.93
2016-05-23T07:28:44.431Z,51.73
2016-05-23T07:29:44.309Z,52.02
2016-05-23T07:30:44.484Z,51.93
2016-05-23T07:31:45.017Z,51.83
2016-05-23T07:32:44.520Z,51.64
2016-05-23T07:33:44.553Z,51.93
2016-05-23T07:34:44.589Z,51.73
2016-05-23T07:35:44.466Z,51.83
2016-05-23T07:36:44.625Z,51.93
2016-05-23T07:37:44.659Z,51.93
2016-05-23T07:38:44.537Z,52.02
2016-05-23T07:39:44.711Z,52.02
2016-05-23T07:40:44.730Z,51.83
2016-05-23T07:41:44.763Z,51.93
2016-05-23T07:42:44.781Z,51.93
2016-05-23T07:43:44.815Z,52.12
2016-05-23T07:44:45.006Z,51.83
2016-05-23T07:45:44.868Z,51.83
2016-05-23T07:46:44.901Z,52.02
2016-05-23T07:47:44.919Z,52.02
2016-05-23T07:48:44.938Z,52.02
2016-05-23T07:49:44.987Z,52.02
2016-05-23T07:50:45.007Z,52.02
2016-05-23T07:51:45.040Z,51.83
2016-05-23T07:52:45.246Z,52.31
2016-05-23T07:53:45.076Z,51.83
2016-05-23T07:54:45.110Z,52.31
2016-05-23T07:55:45.129Z,51.83
2016-05-23T07:56:45.148Z,51.93
2016-05-23T07:57:45.181Z,51.35
2016-05-23T07:58:45.199Z,51.35
2016-05-23T07:59:45.092Z,51.54
2016-05-23T08:00:45.252Z,51.54
2016-05-23T08:01:45.489Z,51.45
2016-05-23T08:02:45.304Z,51.35
2016-05-23T08:03:45.337Z,51.54
2016-05-23T08:04:45.356Z,51.54
2016-05-23T08:05:45.375Z,51.25
2016-05-23T08:06:45.409Z,51.54
2016-05-23T08:07:45.442Z,51.54
2016-05-23T08:08:45.351Z,51.64
2016-05-23T08:09:45.495Z,51.54
2016-05-23T08:10:45.357Z,51.25
2016-05-23T08:11:45.547Z,51.45
2016-05-23T08:12:45.394Z,51.45
2016-05-23T08:13:45.428Z,51.45
2016-05-23T08:14:46.024Z,51.45
2016-05-23T08:15:45.494Z,51.45
2016-05-23T08:16:45.654Z,51.25
2016-05-23T08:17:45.688Z,51.73
2016-05-23T08:18:45.707Z,51.35
2016-05-23T08:19:45.741Z,51.25
2016-05-23T08:20:45.774Z,51.25
2016-05-23T08:21:45.636Z,51.16
2016-05-23T08:22:45.810Z,51.06
2016-05-23T08:23:45.860Z,51.16
2016-05-23T08:24:45.706Z,51.35
2016-05-23T08:25:45.897Z,51.35
2016-05-23T08:26:45.915Z,50.87
2016-05-23T08:27:45.949Z,51.06
2016-05-23T08:28:45.967Z,51.16
2016-05-23T08:29:46.017Z,51.06
2016-05-23T08:30:46.020Z,50.78
2016-05-23T08:31:45.913Z,51.35
2016-05-23T08:32:46.072Z,50.87
2016-05-23T08:33:46.106Z,51.06
2016-05-23T08:34:46.125Z,50.96
2016-05-23T08:35:46.143Z,51.06
2016-05-23T08:36:46.176Z,50.87
2016-05-23T08:37:46.039Z,50.87
2016-05-23T08:38:46.229Z,50.96
2016-05-23T08:39:46.247Z,51.06
2016-05-23T08:40:46.125Z,50.96
2016-05-23T08:41:46.314Z,51.28
2016-05-23T08:42:46.333Z,51.06
2016-05-23T08:43:46.367Z,51.18
2016-05-23T08:44:46.495Z,51.28
2016-05-23T08:45:46.405Z,51.16
2016-05-23T08:46:46.438Z,50.87
2016-05-23T08:47:46.456Z,51.25
2016-05-23T08:48:46.491Z,50.96
2016-05-23T08:49:46.508Z,51.06
2016-05-23T08:50:46.542Z,50.9
2016-05-23T08:51:46.560Z,50.9
2016-05-23T08:52:46.438Z,50.96
2016-05-23T08:53:46.613Z,50.9
2016-05-23T08:54:46.491Z,51.18
2016-05-23T08:55:46.666Z,50.9
2016-05-23T08:56:46.699Z,50.9
2016-05-23T08:57:46.718Z,51.16
2016-05-23T08:58:46.751Z,51.37
2016-05-23T08:59:46.895Z,50.9
2016-05-23T09:00:46.788Z,50.68
2016-05-23T09:01:46.837Z,50.61
2016-05-23T09:02:46.840Z,50.61
2016-05-23T09:03:46.874Z,50.58
2016-05-23T09:04:46.909Z,50.8
2016-05-23T09:05:46.926Z,50.9
2016-05-23T09:06:46.945Z,50.8
2016-05-23T09:07:46.979Z,50.7
2016-05-23T09:08:46.997Z,50.8
2016-05-23T09:09:47.031Z,50.99
2016-05-23T09:10:47.049Z,50.9
2016-05-23T09:11:47.083Z,50.23
2016-05-23T09:12:47.102Z,50.8
2016-05-23T09:13:47.136Z,50.13
2016-05-23T09:14:47.373Z,50.8
2016-05-23T09:15:47.188Z,50.51
2016-05-23T09:16:47.238Z,50.32
2016-05-23T09:17:48.053Z,49.93
2016-05-23T09:18:47.259Z,50.42
2016-05-23T09:19:47.292Z,50.32
2016-05-23T09:20:47.155Z,50.32
2016-05-23T09:21:47.344Z,50.13
2016-05-23T09:22:50.097Z,50.42
2016-05-23T09:23:47.396Z,50.61
2016-05-23T09:24:47.415Z,50.51
2016-05-23T09:25:47.449Z,50.03
2016-05-23T09:26:47.468Z,50.03
2016-05-23T09:27:47.485Z,49.84
2016-05-23T09:28:47.520Z,49.74
2016-05-23T09:29:47.476Z,50.13
2016-05-23T09:30:47.571Z,50.23
2016-05-23T09:31:47.903Z,49.84
2016-05-23T09:32:47.515Z,49.84
2016-05-23T09:33:48.142Z,50.13
2016-05-23T09:34:47.582Z,49.57
2016-05-23T09:35:47.773Z,49.74
2016-05-23T09:36:47.806Z,49.46
2016-05-23T09:37:47.762Z,49.77
2016-05-23T09:38:47.781Z,49.74
2016-05-23T09:39:47.799Z,49.48
2016-05-23T09:40:47.692Z,49.57
2016-05-23T09:41:47.851Z,49.1
2016-05-23T09:42:47.886Z,49.19
2016-05-23T09:43:47.920Z,49.38
2016-05-23T09:44:48.188Z,49.48
2016-05-23T09:45:48.097Z,49.77
2016-05-23T09:46:47.989Z,49.57
2016-05-23T09:47:48.025Z,49.48
2016-05-23T09:48:48.042Z,49.29
2016-05-23T09:49:48.060Z,49
2016-05-23T09:50:48.094Z,48.71
2016-05-23T09:51:48.128Z,48.81
2016-05-23T09:52:48.147Z,49.38
2016-05-23T09:53:48.165Z,49.29
2016-05-23T09:54:48.199Z,49.38
2016-05-23T09:55:48.218Z,48.81
2016-05-23T09:56:48.266Z,49
2016-05-23T09:57:48.269Z,48.61
2016-05-23T09:58:48.304Z,48.81
2016-05-23T09:59:48.338Z,48.61
2016-05-23T10:00:48.356Z,48.9
2016-05-23T10:01:48.390Z,48.52
2016-05-23T10:02:48.252Z,48.52
2016-05-23T10:03:48.443Z,48.9
2016-05-23T10:04:48.460Z,48.43
2016-05-23T10:05:48.323Z,48.43
2016-05-23T10:06:48.512Z,48.45
2016-05-23T10:07:48.546Z,48.52
2016-05-23T10:08:48.580Z,48.16
2016-05-23T10:09:48.614Z,48.35
2016-05-23T10:10:48.633Z,48.35
2016-05-23T10:11:48.651Z,48.07
2016-05-23T10:12:48.684Z,47.97
2016-05-23T10:13:48.703Z,47.87
2016-05-23T10:14:48.737Z,47.77
2016-05-23T10:15:48.600Z,48.16
2016-05-23T10:16:48.617Z,47.97
2016-05-23T10:17:48.807Z,47.87
2016-05-23T10:18:48.826Z,47.2
2016-05-23T10:19:48.860Z,47.49
2016-05-23T10:20:48.878Z,47.3
2016-05-23T10:21:48.912Z,47.49
2016-05-23T10:22:48.946Z,47.39
2016-05-23T10:23:48.964Z,47.2
2016-05-23T10:24:49.014Z,47.3
2016-05-23T10:25:49.016Z,47.2
2016-05-23T10:26:49.051Z,47.39
2016-05-23T10:27:49.085Z,47.2
2016-05-23T10:28:49.088Z,47.58
2016-05-23T10:29:49.152Z,47.2
2016-05-23T10:30:49.171Z,47.49
2016-05-23T10:31:49.174Z,47.68
2016-05-23T10:32:49.208Z,47.58
2016-05-23T10:33:49.225Z,47.58
2016-05-23T10:34:49.243Z,47.49
2016-05-23T10:35:49.278Z,47.49
2016-05-23T10:36:49.312Z,47.39
2016-05-23T10:37:49.361Z,47.2
2016-05-23T10:38:49.192Z,47.39
2016-05-23T10:39:49.226Z,47.39
2016-05-23T10:40:49.401Z,47.39
2016-05-23T10:41:49.434Z,47.39
2016-05-23T10:42:49.312Z,47.39
2016-05-23T10:43:49.486Z,47.1
2016-05-23T10:44:49.520Z,47
2016-05-23T10:45:49.383Z,47.2
2016-05-23T10:46:49.573Z,47.39
2016-05-23T10:47:49.435Z,47.39
2016-05-23T10:48:49.610Z,47.39
2016-05-23T10:49:49.644Z,47.58
2016-05-23T10:50:49.678Z,47.49
2016-05-23T10:51:49.696Z,47.49
2016-05-23T10:52:49.730Z,47.49
2016-05-23T10:53:49.749Z,47.3
2016-05-23T10:54:49.767Z,47.39
2016-05-23T10:55:49.800Z,47.3
2016-05-23T10:56:49.834Z,47.77
2016-05-23T10:57:49.852Z,47.87
2016-05-23T10:58:49.887Z,47.58
2016-05-23T10:59:50.218Z,47.97
2016-05-23T11:00:49.938Z,47.87
2016-05-23T11:01:49.988Z,47.77
2016-05-23T11:02:49.991Z,48.07
2016-05-23T11:03:50.026Z,47.77
2016-05-23T11:04:50.043Z,47.97
2016-05-23T11:05:50.062Z,47.87
2016-05-23T11:06:50.096Z,47.87
2016-05-23T11:07:50.115Z,47.87
2016-05-23T11:08:50.148Z,47.97
2016-05-23T11:09:50.167Z,47.68
2016-05-23T11:10:50.247Z,47.77
2016-05-23T11:11:50.250Z,47.87
2016-05-23T11:12:50.096Z,47.85
2016-05-23T11:13:50.270Z,47.97
2016-05-23T11:14:50.508Z,47.87
2016-05-23T11:15:50.167Z,47.87
2016-05-23T11:16:50.357Z,47.85
2016-05-23T11:17:50.376Z,47.77
2016-05-23T11:18:50.425Z,47.94
2016-05-23T11:19:50.459Z,47.87
2016-05-23T11:20:50.461Z,47.87
2016-05-23T11:21:50.495Z,47.68
2016-05-23T11:22:50.514Z,47.87
2016-05-23T11:23:50.547Z,47.77
2016-05-23T11:24:50.566Z,47.77
2016-05-23T11:25:50.600Z,47.97
2016-05-23T11:26:50.619Z,47.77
2016-05-23T11:27:50.636Z,48.07
2016-05-23T11:28:50.671Z,48.07
2016-05-23T11:29:50.705Z,47.97
2016-05-23T11:30:50.723Z,48.07
2016-05-23T11:31:50.757Z,48.07
2016-05-23T11:32:50.775Z,47.77
2016-05-23T11:33:50.810Z,47.87
2016-05-23T11:34:50.827Z,47.87
2016-05-23T11:35:50.862Z,47.39
2016-05-23T11:36:50.911Z,47.68
2016-05-23T11:37:50.913Z,47.39
2016-05-23T11:38:50.932Z,47.49
2016-05-23T11:39:50.965Z,47.39
2016-05-23T11:40:50.984Z,47.1
2016-05-23T11:41:50.862Z,47.3
2016-05-23T11:42:51.036Z,47.39
2016-05-23T11:43:51.070Z,47.39
2016-05-23T11:44:51.573Z,47.68
2016-05-23T11:45:51.122Z,47.3
2016-05-23T11:46:51.156Z,47.1
2016-05-23T11:47:51.175Z,47.1
2016-05-23T11:48:51.192Z,47.1
2016-05-23T11:49:51.227Z,46.81
2016-05-23T11:50:51.245Z,46.91
2016-05-23T11:51:51.123Z,46.81
2016-05-23T11:52:51.142Z,46.43
2016-05-23T11:53:51.331Z,46.53
2016-05-23T11:54:51.366Z,46.45
2016-05-23T11:55:51.383Z,46.43
2016-05-23T11:56:51.418Z,46.36
2016-05-23T11:57:51.436Z,46.26
2016-05-23T11:58:51.470Z,46.45
2016-05-23T11:59:51.770Z,46.26
2016-05-23T12:00:51.506Z,46.16
2016-05-23T12:01:51.540Z,46.06
2016-05-23T12:02:51.574Z,45.78
2016-05-23T12:03:51.593Z,45.78
2016-05-23T12:04:51.627Z,45.59
2016-05-23T12:05:51.646Z,45.78
2016-05-23T12:06:51.679Z,45.87
2016-05-23T12:07:51.698Z,45.49
2016-05-23T12:08:51.732Z,45.68
2016-05-23T12:09:51.750Z,45.49
2016-05-23T12:10:51.784Z,45.68
2016-05-23T12:11:51.645Z,45.78
2016-05-23T12:12:51.851Z,45.87
2016-05-23T12:13:51.854Z,45.78
2016-05-23T12:14:51.904Z,45.39
2016-05-23T12:15:51.906Z,45.01
2016-05-23T12:16:51.784Z,45.01
2016-05-23T12:17:51.958Z,45.49
2016-05-23T12:18:51.992Z,45.2
2016-05-23T12:19:52.026Z,45.1
2016-05-23T12:20:52.045Z,45.2
2016-05-23T12:21:52.064Z,45.1
2016-05-23T12:22:52.113Z,45.22
2016-05-23T12:23:52.131Z,45.2
2016-05-23T12:24:52.149Z,44.91
2016-05-23T12:25:52.167Z,45.2
2016-05-23T12:26:52.202Z,45.22
2016-05-23T12:27:52.236Z,45.13
2016-05-23T12:28:52.269Z,44.91
2016-05-23T12:29:52.288Z,45.32
2016-05-23T12:30:52.306Z,44.93
2016-05-23T12:31:52.340Z,45.1
2016-05-23T12:32:52.358Z,45.1
2016-05-23T12:33:52.392Z,45.1
2016-05-23T12:34:52.473Z,45.2
2016-05-23T12:35:52.444Z,45.1
2016-05-23T12:36:52.463Z,45.01
2016-05-23T12:37:52.497Z,45.1
2016-05-23T12:38:52.593Z,45.39
2016-05-23T12:39:52.548Z,45.2
2016-05-23T12:40:52.582Z,45.68
2016-05-23T12:41:52.617Z,45.68
2016-05-23T12:42:52.651Z,45.39
2016-05-23T12:43:52.654Z,45.39
2016-05-23T12:44:52.672Z,45.39
2016-05-23T12:45:52.706Z,45.97
2016-05-23T12:46:52.803Z,45.49
2016-05-23T12:47:52.774Z,45.87
2016-05-23T12:48:52.792Z,45.78
2016-05-23T12:49:52.841Z,45.97
2016-05-23T12:50:52.876Z,45.87
2016-05-23T12:51:52.878Z,46.06
2016-05-23T12:52:52.897Z,46.26
2016-05-23T12:53:52.947Z,45.97
2016-05-23T12:54:52.964Z,46.26
2016-05-23T12:55:52.966Z,46.62
2016-05-23T12:56:52.844Z,46.33